Time;durP1;ratioP1;P1;durP2;ratioP2;P2;SDS_P1;SDS_P2;PMS_P1;PMS_P2;Temp;Humidity;BMP_temperature;BMP_pressure;BME280_temperature;BME280_humidity;BME280_pressure;Samples;Min_cycle;Max_cycle;Signal;HPM_P1;HPM_P2
2023/10/15 00:02:04;;;;;;;2.65;1.50;;;23.80;54.00;;;;;;4999428;28;20034;-62
2023/10/15 00:04:30;;;;;;;3.30;1.48;;;23.80;54.00;;;;;;4999421;28;20072;-63
2023/10/15 00:06:55;;;;;;;3.40;1.80;;;23.80;54.00;;;;;;4999978;28;20029;-65
2023/10/15 00:09:21;;;;;;;3.08;1.50;;;23.80;54.00;;;;;;4996389;28;20338;-64
2023/10/15 00:11:47;;;;;;;3.03;1.60;;;23.80;54.00;;;;;;4995588;28;20031;-65
2023/10/15 00:14:13;;;;;;;3.92;1.70;;;23.70;54.00;;;;;;5000072;28;20034;-65
2023/10/15 00:16:39;;;;;;;2.90;1.50;;;23.70;54.00;;;;;;4998123;28;20945;-65
2023/10/15 00:19:11;;;;;;;3.45;1.60;;;23.70;54.00;;;;;;4999847;28;20137;-64
2023/10/15 00:21:38;;;;;;;3.20;1.65;;;23.70;54.00;;;;;;4997563;28;20092;-65
2023/10/15 00:24:10;;;;;;;3.55;1.65;;;23.70;54.00;;;;;;5000489;28;20038;-65
2023/10/15 00:26:35;;;;;;;3.40;1.60;;;23.70;54.00;;;;;;4997964;28;20108;-62
2023/10/15 00:29:01;;;;;;;3.25;1.60;;;23.70;54.00;;;;;;4999721;28;20529;-63
2023/10/15 00:31:28;;;;;;;3.08;1.40;;;23.70;54.00;;;;;;4997693;28;20035;-63
2023/10/15 00:33:53;;;;;;;2.17;1.25;;;23.70;54.00;;;;;;5000618;28;20073;-63
2023/10/15 00:36:19;;;;;;;2.35;1.40;;;23.70;54.00;;;;;;4998590;28;20070;-64
2023/10/15 00:38:45;;;;;;;3.38;1.75;;;23.70;54.00;;;;;;4997353;28;20027;-63
2023/10/15 00:41:13;;;;;;;2.80;1.48;;;23.70;54.00;;;;;;4998767;28;20098;-63
2023/10/15 00:43:52;;;;;;;3.20;1.70;;;23.70;54.00;;;;;;4996391;28;20500;-63
2023/10/15 00:46:18;;;;;;;3.92;1.67;;;23.70;54.10;;;;;;4998055;28;20367;-63
2023/10/15 00:48:45;;;;;;;2.65;1.40;;;23.70;54.00;;;;;;4998835;28;20025;-63
2023/10/15 00:51:11;;;;;;;2.65;1.58;;;23.60;54.00;;;;;;4998425;28;20039;-63
2023/10/15 00:53:47;;;;;;;2.80;1.50;;;23.60;54.00;;;;;;4996803;28;20030;-64
2023/10/15 00:56:16;;;;;;;2.45;1.38;;;23.60;54.00;;;;;;4998808;28;20542;-63
2023/10/15 01:03:48;;;;;;;2.67;1.40;;;23.60;54.00;;;;;;5003950;28;20018;-63
2023/10/15 01:06:16;;;;;;;2.80;1.63;;;23.60;54.00;;;;;;5001585;28;20026;-63
2023/10/15 01:08:42;;;;;;;3.13;1.30;;;23.60;54.00;;;;;;5002176;28;20129;-62
2023/10/15 01:11:08;;;;;;;2.28;1.40;;;23.50;54.00;;;;;;5000901;28;20405;-62
2023/10/15 01:13:35;;;;;;;3.40;1.58;;;23.50;54.00;;;;;;5001084;28;20502;-62
2023/10/15 01:16:04;;;;;;;2.47;1.40;;;23.50;54.00;;;;;;5000300;28;20038;-63
2023/10/15 01:18:30;;;;;;;2.40;1.40;;;23.50;54.00;;;;;;5002039;28;20030;-66
2023/10/15 01:21:01;;;;;;;2.80;1.50;;;23.50;54.00;;;;;;5002748;28;20041;-66
2023/10/15 01:23:31;;;;;;;2.92;1.48;;;23.50;54.00;;;;;;5000615;28;20026;-66
2023/10/15 01:25:59;;;;;;;3.33;1.67;;;23.50;54.10;;;;;;5001203;28;20045;-65
2023/10/15 01:28:36;;;;;;;3.38;1.40;;;23.50;54.00;;;;;;5001632;28;20030;-66
2023/10/15 01:31:07;;;;;;;2.33;1.40;;;23.50;54.00;;;;;;5002833;28;20053;-66
2023/10/15 01:33:49;;;;;;;2.38;1.42;;;23.50;54.00;;;;;;5000915;28;20478;-66
2023/10/15 01:36:19;;;;;;;2.53;1.30;;;23.50;54.00;;;;;;5000703;28;20909;-65
2023/10/15 01:38:45;;;;;;;2.03;1.30;;;23.50;54.00;;;;;;4996786;28;20027;-61
2023/10/15 01:41:13;;;;;;;2.17;1.30;;;23.50;54.00;;;;;;5000620;28;20466;-61
2023/10/15 01:43:40;;;;;;;2.47;1.40;;;23.50;54.10;;;;;;5000875;28;20105;-61
2023/10/15 01:46:10;;;;;;;2.88;1.38;;;23.50;54.00;;;;;;5000538;28;20018;-61
2023/10/15 01:48:40;;;;;;;2.25;1.35;;;23.40;54.00;;;;;;5001309;28;20026;-62
2023/10/15 01:51:06;;;;;;;2.10;1.30;;;23.40;54.00;;;;;;5001497;28;20041;-62
2023/10/15 01:53:37;;;;;;;2.08;1.27;;;23.40;54.00;;;;;;4999207;28;20030;-62
2023/10/15 01:56:04;;;;;;;2.03;1.20;;;23.40;54.00;;;;;;4997752;28;20386;-61
2023/10/15 01:58:32;;;;;;;2.88;1.42;;;23.40;54.00;;;;;;5003028;28;20450;-62
2023/10/15 02:01:13;;;;;;;2.08;1.15;;;23.40;54.00;;;;;;5001696;28;20058;-63
2023/10/15 02:03:42;;;;;;;2.00;1.20;;;23.40;54.00;;;;;;4999836;28;20026;-62
2023/10/15 02:06:08;;;;;;;2.40;1.30;;;23.40;54.00;;;;;;5001226;28;20030;-62
2023/10/15 02:08:39;;;;;;;2.30;1.20;;;23.40;54.00;;;;;;4999472;28;20034;-62
2023/10/15 02:11:15;;;;;;;2.00;1.20;;;23.40;54.00;;;;;;4997029;28;20493;-62
2023/10/15 02:13:44;;;;;;;2.33;1.25;;;23.40;54.00;;;;;;4998870;28;20025;-61
2023/10/15 02:16:25;;;;;;;2.22;1.30;;;23.40;54.00;;;;;;5002025;28;20056;-61
2023/10/15 02:18:51;;;;;;;2.08;1.30;;;23.30;54.00;;;;;;4999984;28;20117;-62
2023/10/15 02:21:17;;;;;;;2.63;1.20;;;23.40;54.00;;;;;;4998982;28;20105;-62
2023/10/15 02:23:50;;;;;;;2.30;1.30;;;23.30;54.00;;;;;;5000175;28;20034;-61
2023/10/15 02:26:29;;;;;;;1.67;1.10;;;23.30;54.00;;;;;;4998522;28;20022;-62
2023/10/15 02:28:54;;;;;;;3.03;1.40;;;23.30;54.00;;;;;;5000623;28;20034;-61
2023/10/15 02:31:23;;;;;;;2.03;1.20;;;23.30;54.00;;;;;;4999507;28;20553;-61
2023/10/15 02:33:50;;;;;;;1.77;1.02;;;23.30;54.00;;;;;;5000987;28;20044;-61
2023/10/15 02:36:16;;;;;;;2.30;1.33;;;23.30;54.00;;;;;;4999001;28;20050;-62
2023/10/15 02:38:52;;;;;;;2.58;1.23;;;23.30;54.00;;;;;;5001658;28;20115;-62
2023/10/15 02:41:21;;;;;;;2.60;1.20;;;23.30;54.00;;;;;;4999994;28;20027;-63
2023/10/15 02:43:56;;;;;;;2.78;1.30;;;23.30;54.00;;;;;;5000766;28;20121;-63
2023/10/15 02:46:22;;;;;;;2.75;1.35;;;23.30;54.00;;;;;;4999004;28;20049;-62
2023/10/15 02:48:49;;;;;;;2.08;1.08;;;23.30;54.00;;;;;;5000373;28;20397;-62
2023/10/15 02:51:19;;;;;;;2.60;1.25;;;23.30;54.00;;;;;;5007053;28;20044;-62
2023/10/15 02:53:52;;;;;;;2.25;1.30;;;23.20;54.00;;;;;;5000416;28;20512;-62
2023/10/15 02:56:17;;;;;;;2.20;1.20;;;23.20;54.00;;;;;;4998981;28;20019;-62
2023/10/15 02:58:46;;;;;;;3.20;1.27;;;23.20;54.00;;;;;;5001759;28;20038;-63
2023/10/15 03:01:17;;;;;;;3.08;1.30;;;23.20;54.00;;;;;;4999942;28;20145;-62
2023/10/15 03:03:48;;;;;;;1.70;1.10;;;23.20;54.00;;;;;;4998329;28;20105;-61
2023/10/15 03:06:18;;;;;;;2.55;1.27;;;23.20;54.00;;;;;;5000989;28;20034;-61
2023/10/15 03:08:47;;;;;;;2.28;1.10;;;23.20;54.00;;;;;;4999390;28;20126;-62
2023/10/15 03:11:14;;;;;;;1.85;1.10;;;23.20;54.00;;;;;;4997930;28;20087;-62
2023/10/15 03:16:22;;;;;;;2.30;1.10;;;23.20;54.00;;;;;;5000805;28;20478;-62
2023/10/15 03:18:48;;;;;;;2.17;1.20;;;23.20;54.00;;;;;;4999256;28;20453;-62
2023/10/15 03:21:26;;;;;;;1.80;1.00;;;23.20;54.00;;;;;;4998966;28;20022;-62
2023/10/15 03:23:55;;;;;;;2.03;1.13;;;23.20;54.00;;;;;;4999022;28;20076;-62
2023/10/15 03:26:30;;;;;;;2.05;1.10;;;23.20;54.50;;;;;;4998422;28;20054;-62
2023/10/15 03:28:58;;;;;;;1.83;1.20;;;23.20;54.10;;;;;;5001085;28;20042;-64
2023/10/15 03:31:31;;;;;;;1.42;1.00;;;23.10;54.00;;;;;;4998179;28;20496;-64
2023/10/15 03:36:51;;;;;;;2.70;1.15;;;23.10;54.00;;;;;;4999473;28;20432;-63
2023/10/15 03:39:34;;;;;;;2.58;1.17;;;23.10;54.00;;;;;;4997658;28;20037;-65
2023/10/15 03:42:17;;;;;;;2.33;1.10;;;23.10;54.00;;;;;;4998494;28;20033;-64
2023/10/15 03:44:47;;;;;;;1.98;1.10;;;23.10;54.00;;;;;;4999216;28;20509;-64
2023/10/15 03:47:14;;;;;;;2.08;1.00;;;23.10;54.00;;;;;;5001097;28;20565;-64
2023/10/15 03:49:40;;;;;;;1.90;1.00;;;23.10;54.00;;;;;;4997919;28;20034;-64
2023/10/15 03:52:14;;;;;;;1.50;0.98;;;23.10;54.00;;;;;;4997361;28;20049;-64
2023/10/15 03:54:40;;;;;;;1.85;1.10;;;23.10;54.00;;;;;;4998295;28;20026;-64
2023/10/15 03:57:06;;;;;;;1.83;1.10;;;23.10;54.00;;;;;;5000077;28;20033;-68
2023/10/15 03:59:42;;;;;;;1.42;0.98;;;23.10;54.00;;;;;;4998008;28;20092;-67
2023/10/15 04:02:11;;;;;;;1.73;1.08;;;23.10;54.00;;;;;;4998213;28;20513;-67
2023/10/15 04:04:37;;;;;;;;;;;23.10;54.00;;;;;;5000637;28;20555;-68
2023/10/15 04:07:12;;;;;;;2.22;1.00;;;23.10;54.00;;;;;;5000937;28;19999;-67
2023/10/15 04:09:38;;;;;;;2.17;1.10;;;23.00;54.00;;;;;;4999309;28;20120;-67
2023/10/15 04:12:06;;;;;;;1.35;1.00;;;23.00;54.00;;;;;;4996150;28;20427;-68
2023/10/15 04:14:35;;;;;;;1.67;1.00;;;23.10;54.00;;;;;;4999544;28;20030;-68
2023/10/15 04:17:01;;;;;;;1.55;1.00;;;23.00;54.00;;;;;;4997924;28;20033;-67
2023/10/15 04:19:29;;;;;;;1.92;1.10;;;23.00;54.00;;;;;;4996666;28;20053;-67
2023/10/15 04:22:09;;;;;;;1.63;1.02;;;23.00;54.00;;;;;;4998525;28;20042;-68
2023/10/15 04:24:36;;;;;;;2.20;1.10;;;23.00;54.00;;;;;;5011891;28;20022;-68
2023/10/15 04:27:15;;;;;;;1.60;1.00;;;23.00;54.00;;;;;;4995359;28;20398;-67
2023/10/15 04:30:00;;;;;;;2.10;1.20;;;23.00;54.00;;;;;;4999514;28;20108;-68
2023/10/15 04:32:29;;;;;;;2.00;1.05;;;23.00;54.00;;;;;;4998960;28;20030;-67
2023/10/15 04:35:11;;;;;;;1.77;1.00;;;23.00;54.00;;;;;;5001335;28;20496;-68
2023/10/15 04:37:37;;;;;;;1.70;0.98;;;23.00;54.00;;;;;;5002049;28;20418;-61
2023/10/15 04:40:06;;;;;;;1.92;1.10;;;23.00;54.00;;;;;;5000264;28;20463;-62
2023/10/15 04:42:48;;;;;;;;;;;22.90;53.90;;;;;;5004656;28;20482;-62
2023/10/15 04:45:24;;;;;;;2.30;1.20;;;23.00;54.00;;;;;;5015935;28;19920;-61
2023/10/15 04:47:59;;;;;;;1.65;1.00;;;23.00;54.00;;;;;;5003258;28;20125;-63
2023/10/15 04:50:37;;;;;;;2.15;1.10;;;23.00;54.00;;;;;;5001707;28;20371;-63
2023/10/15 04:53:12;;;;;;;1.97;1.30;;;22.90;54.00;;;;;;5003475;28;20069;-63
2023/10/15 04:55:42;;;;;;;1.20;0.77;;;23.00;54.00;;;;;;5000420;28;20037;-64
2023/10/15 04:58:09;;;;;;;1.50;1.00;;;22.90;54.00;;;;;;5002079;28;20537;-64
2023/10/15 05:00:41;;;;;;;2.20;1.20;;;22.90;54.50;;;;;;5002014;28;20496;-63
2023/10/15 05:03:09;;;;;;;1.50;0.90;;;22.90;54.00;;;;;;5001431;28;20113;-63
2023/10/15 05:05:35;;;;;;;1.60;1.00;;;22.90;54.00;;;;;;4999376;28;20073;-64
2023/10/15 05:08:00;;;;;;;1.38;1.00;;;22.90;54.00;;;;;;5001390;28;20070;-61
2023/10/15 05:10:32;;;;;;;1.70;1.08;;;22.90;54.00;;;;;;5001613;28;20394;-62
2023/10/15 05:12:59;;;;;;;1.45;0.90;;;22.90;54.00;;;;;;5002655;28;20426;-62
2023/10/15 05:15:25;;;;;;;1.50;0.90;;;22.90;54.10;;;;;;4999509;28;20113;-62
2023/10/15 05:17:51;;;;;;;1.13;0.90;;;22.90;54.00;;;;;;5002780;28;20141;-62
2023/10/15 05:20:20;;;;;;;1.50;1.00;;;22.90;54.10;;;;;;5001272;28;20140;-62
2023/10/15 05:22:46;;;;;;;;;;;22.90;54.10;;;;;;5000724;28;20682;-62
2023/10/15 05:25:21;;;;;;;1.48;1.00;;;22.90;54.10;;;;;;5002053;28;19909;-62
2023/10/15 05:27:52;;;;;;;1.58;1.00;;;22.90;54.10;;;;;;4999556;28;20109;-61
2023/10/15 05:30:19;;;;;;;1.35;0.80;;;22.90;54.10;;;;;;4999858;28;20120;-61
2023/10/15 05:32:45;;;;;;;1.90;1.10;;;22.90;54.10;;;;;;5000901;28;20092;-62
2023/10/15 05:35:12;;;;;;;0.85;0.75;;;22.90;54.10;;;;;;5002081;28;20096;-61
2023/10/15 05:37:41;;;;;;;1.15;0.77;;;22.80;54.00;;;;;;5002213;28;20038;-61
2023/10/15 05:40:07;;;;;;;;;;;22.80;54.00;;;;;;5001485;28;20045;-61
2023/10/15 05:42:33;;;;;;;1.30;0.75;;;22.90;54.10;;;;;;4999734;28;20357;-61
2023/10/15 05:45:00;;;;;;;1.45;0.90;;;22.80;54.10;;;;;;5003026;28;20027;-63
2023/10/15 05:47:26;;;;;;;1.60;0.90;;;22.80;54.10;;;;;;4999891;28;20130;-67
2023/10/15 05:49:54;;;;;;;1.70;1.10;;;22.80;54.00;;;;;;5001891;28;20080;-68
2023/10/15 05:52:19;;;;;;;1.70;1.00;;;22.80;54.10;;;;;;4999980;28;20037;-68
2023/10/15 05:54:47;;;;;;;2.10;1.00;;;22.80;54.10;;;;;;5001187;28;20026;-67
2023/10/15 05:57:13;;;;;;;1.63;0.90;;;22.80;54.10;;;;;;4998817;28;20030;-64
2023/10/15 05:59:38;;;;;;;1.75;1.00;;;22.80;54.10;;;;;;4999738;28;20034;-64
2023/10/15 06:02:04;;;;;;;2.03;0.93;;;22.80;54.10;;;;;;5001260;28;20478;-64
2023/10/15 06:04:30;;;;;;;1.17;0.80;;;22.80;54.10;;;;;;5001770;28;20045;-63
2023/10/15 06:06:57;;;;;;;1.58;1.00;;;22.80;54.10;;;;;;5001898;28;20037;-64
2023/10/15 06:09:23;;;;;;;1.33;0.80;;;22.80;54.10;;;;;;4999151;28;20087;-64
2023/10/15 06:11:50;;;;;;;1.38;0.90;;;22.80;54.10;;;;;;4998769;28;20450;-64
2023/10/15 06:14:16;;;;;;;1.63;1.02;;;22.80;54.10;;;;;;5000190;28;20112;-64
2023/10/15 06:16:41;;;;;;;1.10;0.80;;;22.70;54.10;;;;;;5000589;28;20105;-64
2023/10/15 06:19:09;;;;;;;1.67;0.90;;;22.70;54.10;;;;;;4999520;28;20034;-68
2023/10/15 06:21:35;;;;;;;1.17;0.80;;;22.80;54.10;;;;;;4999732;28;20109;-68
2023/10/15 06:24:01;;;;;;;1.25;0.90;;;22.70;54.10;;;;;;5013417;28;20026;-67
2023/10/15 06:26:28;;;;;;;1.40;0.90;;;22.70;54.10;;;;;;4998777;28;20022;-68
2023/10/15 06:28:53;;;;;;;1.13;0.73;;;22.70;54.10;;;;;;4999494;28;20125;-68
2023/10/15 06:31:19;;;;;;;1.83;1.00;;;22.70;54.10;;;;;;5002613;28;20139;-68
2023/10/15 06:33:45;;;;;;;1.80;0.85;;;22.70;54.10;;;;;;5001219;28;20026;-68
2023/10/15 06:36:10;;;;;;;1.45;0.80;;;22.70;54.10;;;;;;5000268;28;20035;-68
2023/10/15 06:38:36;;;;;;;1.42;0.93;;;22.70;54.20;;;;;;5001789;28;20038;-68
2023/10/15 06:41:01;;;;;;;1.23;0.80;;;22.70;54.10;;;;;;4998050;28;20068;-68
2023/10/15 06:43:28;;;;;;;1.55;0.80;;;22.70;54.10;;;;;;5000997;28;20029;-67
2023/10/15 06:45:53;;;;;;;1.10;0.70;;;22.70;54.10;;;;;;4999394;28;20442;-68
2023/10/15 06:48:22;;;;;;;1.42;0.90;;;22.70;54.20;;;;;;4999515;28;20053;-68
2023/10/15 06:50:48;;;;;;;1.37;0.90;;;22.70;54.20;;;;;;4999615;28;20030;-68
2023/10/15 06:53:14;;;;;;;1.67;0.90;;;22.70;54.10;;;;;;4996696;28;20069;-67
2023/10/15 06:55:39;;;;;;;2.17;1.00;;;22.70;54.20;;;;;;5000054;28;20061;-67
2023/10/15 06:58:05;;;;;;;1.52;0.98;;;22.70;54.10;;;;;;4996631;28;20040;-67
2023/10/15 07:00:36;;;;;;;1.40;0.80;;;22.70;54.10;;;;;;4999945;28;20027;-69
2023/10/15 07:03:02;;;;;;;1.92;1.00;;;22.70;54.20;;;;;;4999947;28;20021;-68
2023/10/15 07:05:28;;;;;;;1.15;0.80;;;22.70;54.20;;;;;;4999888;28;20026;-68
2023/10/15 07:07:56;;;;;;;1.65;0.90;;;22.70;54.20;;;;;;4999626;28;20041;-68
2023/10/15 07:10:22;;;;;;;1.70;0.98;;;22.70;54.20;;;;;;4996266;28;20062;-68
2023/10/15 07:12:52;;;;;;;1.85;0.90;;;22.60;54.10;;;;;;4998655;28;20524;-68
2023/10/15 07:15:20;;;;;;;1.27;0.98;;;22.60;54.20;;;;;;4999062;28;20037;-67
2023/10/15 07:17:46;;;;;;;1.70;0.77;;;22.60;54.20;;;;;;5000220;28;20078;-68
2023/10/15 07:20:16;;;;;;;1.85;1.10;;;22.60;54.10;;;;;;5000746;28;20025;-68
2023/10/15 07:22:43;;;;;;;1.50;0.80;;;22.60;54.10;;;;;;4998811;28;20025;-68
2023/10/15 07:25:10;;;;;;;1.15;0.73;;;22.60;54.10;;;;;;5000722;28;20536;-68
2023/10/15 07:27:38;;;;;;;1.55;0.90;;;22.60;54.10;;;;;;4997381;28;20075;-63
2023/10/15 07:30:06;;;;;;;2.03;0.90;;;22.60;54.20;;;;;;5000293;28;20088;-62
2023/10/15 07:32:33;;;;;;;1.35;0.80;;;22.60;54.20;;;;;;5000170;28;20442;-63
2023/10/15 07:34:59;;;;;;;1.38;0.73;;;22.60;54.20;;;;;;4999197;28;20474;-62
2023/10/15 07:37:25;;;;;;;1.52;0.85;;;22.60;54.10;;;;;;5000031;28;20050;-62
2023/10/15 07:39:50;;;;;;;1.40;0.88;;;22.60;54.10;;;;;;4996014;28;20509;-61
2023/10/15 07:42:16;;;;;;;1.17;0.80;;;22.60;54.20;;;;;;4997725;28;20031;-63
2023/10/15 07:44:42;;;;;;;1.30;0.80;;;22.60;54.20;;;;;;5000182;28;20115;-62
2023/10/15 07:47:07;;;;;;;1.63;0.90;;;22.60;54.20;;;;;;4999303;28;20046;-61
2023/10/15 07:49:34;;;;;;;1.40;0.90;;;22.60;54.20;;;;;;4998976;28;20476;-62
2023/10/15 07:51:59;;;;;;;1.25;0.80;;;22.60;54.20;;;;;;4998213;28;20398;-62
2023/10/15 07:54:25;;;;;;;2.40;0.80;;;22.60;54.20;;;;;;4999579;28;20033;-61
2023/10/15 07:56:50;;;;;;;1.80;1.00;;;22.60;54.30;;;;;;4996187;28;20046;-61
2023/10/15 07:59:16;;;;;;;2.03;1.10;;;22.60;54.30;;;;;;4997284;28;20056;-61
2023/10/15 08:01:42;;;;;;;1.60;0.90;;;22.50;54.20;;;;;;5000521;28;20105;-62
2023/10/15 08:04:09;;;;;;;1.90;0.98;;;22.50;54.20;;;;;;5000617;28;20030;-63
2023/10/15 08:06:34;;;;;;;3.58;1.48;;;22.50;54.30;;;;;;4998261;28;20479;-62
2023/10/15 08:09:00;;;;;;;2.13;0.90;;;22.50;54.30;;;;;;5000619;28;20032;-65
2023/10/15 08:11:26;;;;;;;2.75;1.10;;;22.50;54.30;;;;;;5002530;28;20040;-66
2023/10/15 08:13:51;;;;;;;2.58;1.05;;;22.50;54.40;;;;;;4999881;28;20074;-65
2023/10/15 08:16:18;;;;;;;1.58;0.98;;;22.50;54.30;;;;;;5003443;28;20037;-65
2023/10/15 08:18:45;;;;;;;2.85;1.00;;;22.50;54.40;;;;;;5003589;28;20038;-65
2023/10/15 08:21:11;;;;;;;2.83;1.08;;;22.50;54.40;;;;;;5002324;28;20017;-65
2023/10/15 08:23:38;;;;;;;2.38;1.17;;;22.50;54.50;;;;;;5001743;28;20032;-66
2023/10/15 08:26:05;;;;;;;1.95;1.02;;;22.50;54.50;;;;;;5001440;28;20771;-65
2023/10/15 08:28:31;;;;;;;2.80;1.30;;;22.50;54.50;;;;;;5001323;28;20485;-65
2023/10/15 08:30:57;;;;;;;2.63;1.30;;;22.50;54.50;;;;;;5002020;28;20030;-65
2023/10/15 08:33:23;;;;;;;3.25;1.00;;;22.50;54.60;;;;;;5003035;28;20446;-65
2023/10/15 08:35:49;;;;;;;2.80;1.15;;;22.50;54.60;;;;;;5003417;28;20042;-65
2023/10/15 08:38:15;;;;;;;3.15;1.20;;;22.50;54.60;;;;;;5002856;28;20386;-65
2023/10/15 08:40:48;;;;;;;3.17;1.30;;;22.50;54.70;;;;;;5002346;28;20026;-66
2023/10/15 08:43:26;;;;;;;3.42;1.30;;;22.50;54.70;;;;;;5000840;28;20118;-65
2023/10/15 08:45:53;;;;;;;2.92;1.52;;;22.50;54.70;;;;;;5000577;28;20105;-63
2023/10/15 08:48:19;;;;;;;2.78;1.25;;;22.50;54.80;;;;;;5000246;28;20073;-65
2023/10/15 08:50:46;;;;;;;2.85;1.50;;;22.50;54.80;;;;;;5000851;28;20030;-65
2023/10/15 08:53:13;;;;;;;4.70;2.00;;;22.50;55.40;;;;;;5000640;28;20030;-65
2023/10/15 08:55:41;;;;;;;4.57;1.80;;;22.50;55.00;;;;;;5003178;28;20030;-65
2023/10/15 08:58:09;;;;;;;4.00;1.40;;;22.60;54.90;;;;;;5000559;28;20512;-65
2023/10/15 09:00:39;;;;;;;3.10;1.50;;;22.60;55.00;;;;;;5002147;28;20037;-64
2023/10/15 09:03:05;;;;;;;3.72;1.40;;;22.60;55.00;;;;;;5000827;28;20022;-65
2023/10/15 09:05:33;;;;;;;2.90;1.42;;;22.70;55.10;;;;;;4999734;28;20490;-65
2023/10/15 09:08:12;;;;;;;4.70;1.50;;;22.70;55.00;;;;;;5003887;28;20096;-64
2023/10/15 09:10:40;;;;;;;2.90;1.52;;;22.70;55.10;;;;;;5015040;28;20487;-64
2023/10/15 09:13:14;;;;;;;3.78;1.60;;;22.70;55.10;;;;;;5000814;28;20029;-65
2023/10/15 09:15:43;;;;;;;3.25;1.48;;;22.70;55.00;;;;;;5001419;28;20442;-65
2023/10/15 09:18:15;;;;;;;4.45;1.67;;;22.70;55.00;;;;;;5001749;28;20537;-65
2023/10/15 09:20:43;;;;;;;3.55;1.65;;;22.70;54.90;;;;;;4999309;28;20505;-65
2023/10/15 09:23:09;;;;;;;3.42;1.60;;;22.80;54.90;;;;;;5001412;28;20019;-66
2023/10/15 09:25:35;;;;;;;3.05;1.48;;;22.80;54.90;;;;;;5001714;28;20088;-66
2023/10/15 09:28:01;;;;;;;3.50;1.52;;;22.80;54.90;;;;;;5000402;28;20482;-61
2023/10/15 09:30:30;;;;;;;3.60;1.50;;;22.80;54.80;;;;;;4999031;28;20112;-63
2023/10/15 09:32:59;;;;;;;2.60;1.20;;;22.80;54.80;;;;;;5000178;28;20689;-61
2023/10/15 09:35:25;;;;;;;3.33;1.58;;;22.80;54.70;;;;;;5001114;28;20382;-60
2023/10/15 09:37:53;;;;;;;4.18;1.45;;;22.90;54.80;;;;;;5001567;28;20049;-61
2023/10/15 09:40:31;;;;;;;4.97;1.60;;;22.90;54.70;;;;;;5001718;28;20030;-60
2023/10/15 09:42:57;;;;;;;3.13;1.42;;;22.90;54.70;;;;;;4999499;28;20026;-61
2023/10/15 09:45:23;;;;;;;3.00;1.60;;;22.90;54.70;;;;;;5000606;28;20032;-62
2023/10/15 09:48:34;;;;;;;3.60;1.58;;;22.90;54.70;;;;;;5000679;28;20033;-65
2023/10/15 09:50:41;;;;;;;2.72;1.42;;;22.90;54.70;;;;;;4999483;28;20403;-65
2023/10/15 09:53:10;;;;;;;2.35;1.20;;;22.90;54.60;;;;;;5001951;28;20117;-66
2023/10/15 09:55:36;;;;;;;;;;;22.90;54.60;;;;;;5002581;28;20175;-65
2023/10/15 09:58:06;;;;;;;3.28;1.42;;;23.00;54.60;;;;;;4998360;28;19909;-65
2023/10/15 10:03:29;;;;;;;3.50;1.30;;;23.00;54.60;;;;;;5002697;28;20030;-65
2023/10/15 10:06:09;;;;;;;4.22;1.40;;;23.10;54.60;;;;;;4998599;28;20045;-65
2023/10/15 10:08:56;;;;;;;3.85;1.50;;;23.00;54.60;;;;;;4999507;28;20563;-66
2023/10/15 10:11:56;;;;;;;5.35;1.38;;;23.10;54.60;;;;;;4999803;28;20116;-66
2023/10/15 10:14:23;;;;;;;3.45;1.45;;;23.10;54.70;;;;;;5000010;28;20033;-65
2023/10/15 10:16:49;;;;;;;3.25;1.50;;;23.00;54.60;;;;;;4999629;28;20062;-65
2023/10/15 10:19:16;;;;;;;4.10;1.40;;;23.10;54.70;;;;;;4999521;28;20497;-66
2023/10/15 10:21:46;;;;;;;3.42;1.50;;;23.10;54.80;;;;;;5002930;28;20117;-65
2023/10/15 10:24:12;;;;;;;;;;;23.10;54.80;;;;;;4999293;28;20597;-65
2023/10/15 10:26:42;;;;;;;3.88;1.63;;;23.10;54.80;;;;;;4999621;28;20490;-65
2023/10/15 10:29:11;;;;;;;3.90;1.60;;;23.10;54.90;;;;;;4998407;28;20030;-68
2023/10/15 10:31:39;;;;;;;4.82;1.50;;;23.10;55.00;;;;;;4999263;28;20022;-67
2023/10/15 10:34:05;;;;;;;3.10;1.58;;;23.20;55.60;;;;;;4999606;28;20104;-67
2023/10/15 10:36:37;;;;;;;3.08;1.30;;;23.20;55.20;;;;;;4998294;28;20435;-66
2023/10/15 10:39:17;;;;;;;5.35;1.52;;;23.20;55.50;;;;;;4998718;28;20030;-65
2023/10/15 10:41:42;;;;;;;4.32;1.50;;;23.20;55.50;;;;;;5001820;28;20033;-64
2023/10/15 10:44:12;;;;;;;3.17;1.50;;;23.20;56.10;;;;;;4999128;28;20027;-65
2023/10/15 10:46:44;;;;;;;3.67;1.77;;;23.20;55.70;;;;;;5000038;28;20034;-64
2023/10/15 10:49:16;;;;;;;4.97;1.67;;;23.20;55.80;;;;;;5000127;28;20030;-65
2023/10/15 10:52:02;;;;;;;3.35;1.50;;;23.30;55.90;;;;;;5007116;28;20883;-64
2023/10/15 10:54:36;;;;;;;4.80;1.48;;;23.30;56.00;;;;;;5040998;28;20435;-65
2023/10/15 10:57:06;;;;;;;3.70;1.70;;;23.30;56.00;;;;;;5063484;28;20039;-65
2023/10/15 10:59:33;;;;;;;3.05;1.52;;;23.30;56.00;;;;;;5056783;28;20128;-61
2023/10/15 11:02:00;;;;;;;3.10;1.50;;;23.40;56.60;;;;;;5054652;28;20017;-61
2023/10/15 11:04:26;;;;;;;2.88;1.50;;;23.30;56.00;;;;;;5057575;28;20550;-62
2023/10/15 11:06:52;;;;;;;3.20;1.60;;;23.40;56.10;;;;;;5053279;28;20481;-62
2023/10/15 11:09:22;;;;;;;4.32;1.70;;;23.40;56.10;;;;;;5052625;28;20025;-61
2023/10/15 11:11:55;;;;;;;4.43;1.70;;;23.40;56.10;;;;;;5053578;28;20499;-62
2023/10/15 11:14:23;;;;;;;4.50;1.80;;;23.40;56.10;;;;;;5055454;28;20028;-62
2023/10/15 11:16:54;;;;;;;4.10;1.88;;;23.40;56.20;;;;;;5054871;28;20052;-61
2023/10/15 11:19:22;;;;;;;3.83;1.83;;;23.40;56.10;;;;;;5059179;28;20534;-62
2023/10/15 11:21:48;;;;;;;3.47;1.67;;;23.40;56.20;;;;;;5055266;28;20033;-64
2023/10/15 11:24:15;;;;;;;4.45;1.88;;;23.40;56.10;;;;;;5054472;28;20040;-62
2023/10/15 11:26:42;;;;;;;4.43;1.85;;;23.40;56.10;;;;;;5056408;28;20032;-62
2023/10/15 11:29:18;;;;;;;4.68;1.70;;;23.40;56.10;;;;;;5053169;28;20121;-61
2023/10/15 11:31:46;;;;;;;5.10;1.60;;;23.40;56.10;;;;;;5055022;28;20528;-63
2023/10/15 11:34:14;;;;;;;2.95;1.50;;;23.40;56.10;;;;;;5055221;28;20018;-62
2023/10/15 11:36:43;;;;;;;3.17;1.70;;;23.40;56.10;;;;;;5054470;28;20492;-62
2023/10/15 11:39:18;;;;;;;3.67;1.73;;;23.40;56.10;;;;;;5056713;28;20045;-61
2023/10/15 11:41:51;;;;;;;2.83;1.63;;;23.40;56.10;;;;;;5057564;28;20033;-61
2023/10/15 11:44:25;;;;;;;4.65;1.92;;;23.40;56.00;;;;;;5053736;28;20472;-62
2023/10/15 11:46:51;;;;;;;3.00;1.73;;;23.40;56.00;;;;;;5053952;28;20035;-62
2023/10/15 11:49:22;;;;;;;3.25;1.70;;;23.40;56.00;;;;;;5056151;28;20036;-65
2023/10/15 11:51:49;;;;;;;2.67;1.35;;;23.40;56.00;;;;;;5053045;28;20033;-65
2023/10/15 11:54:15;;;;;;;3.53;2.05;;;23.40;55.90;;;;;;5054795;28;20029;-65
2023/10/15 11:56:50;;;;;;;3.33;1.63;;;23.40;55.90;;;;;;5054653;28;20469;-65
2023/10/15 11:59:16;;;;;;;3.13;1.40;;;23.40;55.90;;;;;;5052729;28;20393;-65
2023/10/15 12:01:50;;;;;;;3.78;1.35;;;23.40;55.80;;;;;;5087147;28;20025;-65
2023/10/15 12:04:15;;;;;;;3.05;1.40;;;23.40;55.90;;;;;;5049614;28;20037;-65
2023/10/15 12:06:43;;;;;;;4.40;1.48;;;23.40;55.90;;;;;;5041891;28;20026;-65
2023/10/15 12:09:12;;;;;;;4.93;1.42;;;23.40;55.90;;;;;;5041251;28;20033;-68
2023/10/15 12:11:39;;;;;;;3.25;1.45;;;23.40;55.90;;;;;;5041372;28;20030;-69
2023/10/15 12:14:05;;;;;;;2.20;1.50;;;23.40;55.90;;;;;;5039305;28;20088;-69
2023/10/15 12:16:31;;;;;;;3.88;1.70;;;23.40;55.90;;;;;;5041619;28;20021;-69
2023/10/15 12:18:56;;;;;;;2.90;1.52;;;23.40;55.80;;;;;;5040625;28;20068;-69
2023/10/15 12:21:22;;;;;;;3.90;1.65;;;23.40;55.80;;;;;;5041785;28;20068;-69
2023/10/15 12:23:48;;;;;;;3.53;1.70;;;23.40;55.80;;;;;;5040898;28;20066;-68
2023/10/15 12:26:13;;;;;;;2.83;1.35;;;23.40;55.80;;;;;;5043155;28;20025;-68
2023/10/15 12:28:46;;;;;;;2.88;1.40;;;23.40;55.70;;;;;;5040621;28;20033;-68
2023/10/15 12:31:12;;;;;;;3.28;1.50;;;23.40;55.70;;;;;;5040238;28;20020;-68
2023/10/15 12:33:38;;;;;;;2.63;1.40;;;23.40;55.70;;;;;;5040432;28;20580;-68
2023/10/15 12:36:07;;;;;;;3.22;1.63;;;23.40;55.60;;;;;;5040419;28;20017;-69
2023/10/15 12:38:34;;;;;;;2.47;1.47;;;23.40;55.60;;;;;;5040071;28;20504;-68
2023/10/15 12:41:00;;;;;;;2.63;1.30;;;23.40;55.60;;;;;;5040573;28;20929;-69
2023/10/15 12:43:26;;;;;;;4.20;1.40;;;23.40;55.60;;;;;;5040379;28;20025;-69
2023/10/15 12:45:53;;;;;;;3.10;1.50;;;23.40;55.50;;;;;;5037841;28;20432;-69
2023/10/15 12:48:20;;;;;;;2.63;1.33;;;23.40;55.50;;;;;;5041024;28;20113;-62
2023/10/15 12:50:51;;;;;;;2.90;1.27;;;23.40;55.60;;;;;;5040835;28;20035;-63
2023/10/15 12:53:18;;;;;;;3.75;1.55;;;23.40;55.50;;;;;;5041770;28;20123;-61
2023/10/15 12:55:44;;;;;;;2.38;1.38;;;23.40;55.50;;;;;;5040605;28;20378;-63
2023/10/15 12:58:12;;;;;;;2.33;1.20;;;23.40;55.50;;;;;;5039071;28;20037;-65
2023/10/15 13:00:43;;;;;;;2.20;1.10;;;23.40;55.40;;;;;;5036183;28;20029;-69
2023/10/15 13:03:09;;;;;;;2.88;1.30;;;23.40;55.40;;;;;;5041811;28;20119;-68
2023/10/15 13:05:35;;;;;;;2.63;1.30;;;23.50;55.40;;;;;;5038157;28;20056;-68
2023/10/15 13:08:00;;;;;;;2.65;1.13;;;23.50;55.40;;;;;;5038941;28;20072;-68
2023/10/15 13:10:26;;;;;;;4.15;1.80;;;23.50;55.30;;;;;;5040304;28;20033;-68